sensor_id;sensor_type;location;lat;lon;timestamp;pressure;altitude;pressure_sealevel;temperature;humidity
35647;BME280;28680;45.642;13.756;2022-12-16T00:01:42;99826.41;;;11.77;100.00
35647;BME280;28680;45.642;13.756;2022-12-16T00:04:07;99828.06;;;11.78;100.00
35647;BME280;28680;45.642;13.756;2022-12-16T00:06:34;99841.22;;;11.78;100.00
35647;BME280;28680;45.642;13.756;2022-12-16T00:09:00;99845.72;;;11.86;100.00
35647;BME280;28680;45.642;13.756;2022-12-16T00:11:27;99857.53;;;12.00;100.00
35647;BME280;28680;45.642;13.756;2022-12-16T00:13:53;99865.81;;;12.05;100.00
35647;BME280;28680;45.642;13.756;2022-12-16T00:16:20;99867.16;;;12.09;100.00
35647;BME280;28680;45.642;13.756;2022-12-16T00:18:46;99870.47;;;12.11;100.00
35647;BME280;28680;45.642;13.756;2022-12-16T00:21:13;99876.63;;;12.20;100.00
35647;BME280;28680;45.642;13.756;2022-12-16T00:23:39;99874.72;;;12.30;100.00
35647;BME280;28680;45.642;13.756;2022-12-16T00:26:09;99870.91;;;12.24;100.00
35647;BME280;28680;45.642;13.756;2022-12-16T00:28:36;99874.88;;;12.28;100.00
35647;BME280;28680;45.642;13.756;2022-12-16T00:31:03;99868.94;;;12.26;100.00
35647;BME280;28680;45.642;13.756;2022-12-16T00:33:29;99887.72;;;12.32;100.00
35647;BME280;28680;45.642;13.756;2022-12-16T00:35:55;99888.88;;;12.29;100.00
35647;BME280;28680;45.642;13.756;2022-12-16T00:38:24;99890.88;;;12.35;100.00
35647;BME280;28680;45.642;13.756;2022-12-16T00:40:50;99889.84;;;12.28;100.00
35647;BME280;28680;45.642;13.756;2022-12-16T00:43:16;99899.06;;;12.32;100.00
35647;BME280;28680;45.642;13.756;2022-12-16T00:45:44;99896.63;;;12.31;100.00
35647;BME280;28680;45.642;13.756;2022-12-16T00:48:10;99892.31;;;12.29;100.00
35647;BME280;28680;45.642;13.756;2022-12-16T00:50:36;99903.53;;;12.32;100.00
35647;BME280;28680;45.642;13.756;2022-12-16T00:53:02;99911.88;;;12.27;100.00
35647;BME280;28680;45.642;13.756;2022-12-16T00:55:29;99909.06;;;12.28;100.00
35647;BME280;28680;45.642;13.756;2022-12-16T00:57:55;99915.19;;;12.29;100.00
35647;BME280;28680;45.642;13.756;2022-12-16T01:00:21;99930.13;;;12.28;100.00
35647;BME280;28680;45.642;13.756;2022-12-16T01:02:50;99927.34;;;12.30;100.00
35647;BME280;28680;45.642;13.756;2022-12-16T01:05:19;99917.28;;;12.25;100.00
35647;BME280;28680;45.642;13.756;2022-12-16T01:07:46;99933.06;;;12.25;100.00
35647;BME280;28680;45.642;13.756;2022-12-16T01:10:13;99919.91;;;12.25;100.00
35647;BME280;28680;45.642;13.756;2022-12-16T01:12:39;99936.00;;;12.22;100.00
35647;BME280;28680;45.642;13.756;2022-12-16T01:15:07;99940.44;;;12.22;100.00
35647;BME280;28680;45.642;13.756;2022-12-16T01:17:33;99944.22;;;12.19;100.00
35647;BME280;28680;45.642;13.756;2022-12-16T01:20:00;99946.31;;;12.16;100.00
35647;BME280;28680;45.642;13.756;2022-12-16T01:22:30;99947.28;;;12.15;100.00
35647;BME280;28680;45.642;13.756;2022-12-16T01:24:57;99948.41;;;12.12;100.00
35647;BME280;28680;45.642;13.756;2022-12-16T01:27:23;99945.09;;;12.10;100.00
35647;BME280;28680;45.642;13.756;2022-12-16T01:29:49;99953.81;;;12.11;100.00
35647;BME280;28680;45.642;13.756;2022-12-16T01:32:15;99954.94;;;12.08;100.00
35647;BME280;28680;45.642;13.756;2022-12-16T01:34:41;99946.66;;;12.03;100.00
35647;BME280;28680;45.642;13.756;2022-12-16T01:37:11;99928.88;;;11.97;100.00
35647;BME280;28680;45.642;13.756;2022-12-16T01:39:38;99925.38;;;11.96;100.00
35647;BME280;28680;45.642;13.756;2022-12-16T01:42:14;99929.00;;;11.95;100.00
35647;BME280;28680;45.642;13.756;2022-12-16T01:44:46;99916.69;;;11.96;100.00
35647;BME280;28680;45.642;13.756;2022-12-16T01:47:19;99921.25;;;11.94;100.00
35647;BME280;28680;45.642;13.756;2022-12-16T01:50:02;99915.19;;;11.93;100.00
35647;BME280;28680;45.642;13.756;2022-12-16T01:52:37;99918.78;;;11.92;100.00
35647;BME280;28680;45.642;13.756;2022-12-16T01:55:17;99907.56;;;11.90;100.00
35647;BME280;28680;45.642;13.756;2022-12-16T01:58:07;99898.16;;;11.87;100.00
35647;BME280;28680;45.642;13.756;2022-12-16T02:00:35;99900.78;;;11.87;100.00
35647;BME280;28680;45.642;13.756;2022-12-16T02:03:02;99889.44;;;11.87;100.00
35647;BME280;28680;45.642;13.756;2022-12-16T02:05:29;99891.38;;;11.85;100.00
35647;BME280;28680;45.642;13.756;2022-12-16T02:13:42;99907.91;;;11.77;100.00
35647;BME280;28680;45.642;13.756;2022-12-16T02:16:31;99906.25;;;11.76;100.00
35647;BME280;28680;45.642;13.756;2022-12-16T02:25:26;99908.91;;;11.76;100.00
35647;BME280;28680;45.642;13.756;2022-12-16T02:33:36;99912.94;;;11.70;100.00
35647;BME280;28680;45.642;13.756;2022-12-16T02:36:14;99910.16;;;11.72;100.00
35647;BME280;28680;45.642;13.756;2022-12-16T02:41:50;99915.72;;;11.69;100.00
35647;BME280;28680;45.642;13.756;2022-12-16T02:44:18;99927.19;;;11.68;100.00
35647;BME280;28680;45.642;13.756;2022-12-16T02:46:54;99914.22;;;11.66;100.00
35647;BME280;28680;45.642;13.756;2022-12-16T02:51:46;99925.22;;;11.70;100.00
35647;BME280;28680;45.642;13.756;2022-12-16T02:54:13;99915.56;;;11.70;100.00
35647;BME280;28680;45.642;13.756;2022-12-16T03:07:52;99927.72;;;11.71;100.00
35647;BME280;28680;45.642;13.756;2022-12-16T03:10:26;99930.34;;;11.71;100.00
35647;BME280;28680;45.642;13.756;2022-12-16T03:12:55;99922.47;;;11.71;100.00
35647;BME280;28680;45.642;13.756;2022-12-16T03:15:25;99927.84;;;11.70;100.00
35647;BME280;28680;45.642;13.756;2022-12-16T03:17:54;99926.09;;;11.70;100.00
35647;BME280;28680;45.642;13.756;2022-12-16T03:20:29;99924.56;;;11.68;100.00
35647;BME280;28680;45.642;13.756;2022-12-16T03:23:02;99928.84;;;11.69;100.00
35647;BME280;28680;45.642;13.756;2022-12-16T03:25:32;99922.59;;;11.70;100.00
35647;BME280;28680;45.642;13.756;2022-12-16T03:31:18;99913.50;;;11.64;100.00
35647;BME280;28680;45.642;13.756;2022-12-16T03:33:56;99917.25;;;11.62;100.00
35647;BME280;28680;45.642;13.756;2022-12-16T03:36:24;99912.00;;;11.62;100.00
35647;BME280;28680;45.642;13.756;2022-12-16T03:38:53;99917.41;;;11.60;100.00
35647;BME280;28680;45.642;13.756;2022-12-16T03:41:22;99915.09;;;11.57;100.00
35647;BME280;28680;45.642;13.756;2022-12-16T03:43:49;99911.63;;;11.57;100.00
35647;BME280;28680;45.642;13.756;2022-12-16T03:46:16;99908.31;;;11.55;100.00
35647;BME280;28680;45.642;13.756;2022-12-16T03:48:50;99904.19;;;11.52;100.00
35647;BME280;28680;45.642;13.756;2022-12-16T03:51:18;99904.19;;;11.52;100.00
35647;BME280;28680;45.642;13.756;2022-12-16T03:53:44;99918.44;;;11.49;100.00
35647;BME280;28680;45.642;13.756;2022-12-16T03:56:11;99916.66;;;11.50;100.00
35647;BME280;28680;45.642;13.756;2022-12-16T03:58:38;99919.28;;;11.50;100.00
35647;BME280;28680;45.642;13.756;2022-12-16T04:01:08;99912.34;;;11.49;100.00
35647;BME280;28680;45.642;13.756;2022-12-16T04:03:36;99914.00;;;11.50;100.00
35647;BME280;28680;45.642;13.756;2022-12-16T04:06:02;99914.84;;;11.50;100.00
35647;BME280;28680;45.642;13.756;2022-12-16T04:08:28;99913.34;;;11.48;100.00
35647;BME280;28680;45.642;13.756;2022-12-16T04:10:54;99907.09;;;11.49;100.00
35647;BME280;28680;45.642;13.756;2022-12-16T04:13:39;99911.53;;;11.48;100.00
35647;BME280;28680;45.642;13.756;2022-12-16T04:16:25;99910.72;;;11.48;100.00
35647;BME280;28680;45.642;13.756;2022-12-16T04:19:33;99911.53;;;11.48;100.00
35647;BME280;28680;45.642;13.756;2022-12-16T04:22:26;99915.16;;;11.47;100.00
35647;BME280;28680;45.642;13.756;2022-12-16T04:25:30;99921.34;;;11.46;100.00
35647;BME280;28680;45.642;13.756;2022-12-16T04:27:57;99923.03;;;11.47;100.00
35647;BME280;28680;45.642;13.756;2022-12-16T04:30:24;99925.94;;;11.44;100.00
35647;BME280;28680;45.642;13.756;2022-12-16T04:33:02;99932.16;;;11.43;100.00
35647;BME280;28680;45.642;13.756;2022-12-16T04:35:47;99928.03;;;11.41;100.00
35647;BME280;28680;45.642;13.756;2022-12-16T04:38:32;99917.66;;;11.39;100.00
35647;BME280;28680;45.642;13.756;2022-12-16T04:41:17;99926.34;;;11.40;100.00
35647;BME280;28680;45.642;13.756;2022-12-16T04:44:02;99917.97;;;11.36;100.00
35647;BME280;28680;45.642;13.756;2022-12-16T04:46:47;99918.91;;;11.35;100.00
35647;BME280;28680;45.642;13.756;2022-12-16T04:49:31;99927.47;;;11.37;100.00
35647;BME280;28680;45.642;13.756;2022-12-16T04:52:16;99918.78;;;11.37;100.00
35647;BME280;28680;45.642;13.756;2022-12-16T04:55:00;99923.34;;;11.35;100.00
35647;BME280;28680;45.642;13.756;2022-12-16T04:57:52;99925.31;;;11.32;100.00
35647;BME280;28680;45.642;13.756;2022-12-16T05:00:37;99934.97;;;11.32;100.00
35647;BME280;28680;45.642;13.756;2022-12-16T05:03:21;99940.91;;;11.34;100.00
35647;BME280;28680;45.642;13.756;2022-12-16T05:06:06;99957.94;;;11.30;100.00
35647;BME280;28680;45.642;13.756;2022-12-16T05:08:51;99954.47;;;11.29;100.00
35647;BME280;28680;45.642;13.756;2022-12-16T05:11:35;99948.53;;;11.27;100.00
35647;BME280;28680;45.642;13.756;2022-12-16T05:14:20;99948.69;;;11.26;100.00
35647;BME280;28680;45.642;13.756;2022-12-16T05:17:04;99956.88;;;11.23;100.00
35647;BME280;28680;45.642;13.756;2022-12-16T05:19:49;99957.69;;;11.23;100.00
35647;BME280;28680;45.642;13.756;2022-12-16T05:22:33;99953.28;;;11.14;100.00
35647;BME280;28680;45.642;13.756;2022-12-16T05:25:18;99957.00;;;11.21;100.00
35647;BME280;28680;45.642;13.756;2022-12-16T05:28:02;99954.94;;;11.15;100.00
35647;BME280;28680;45.642;13.756;2022-12-16T05:30:47;99948.72;;;11.16;100.00
35647;BME280;28680;45.642;13.756;2022-12-16T05:33:31;99946.91;;;11.17;100.00
35647;BME280;28680;45.642;13.756;2022-12-16T05:36:16;99952.16;;;11.17;100.00
35647;BME280;28680;45.642;13.756;2022-12-16T05:39:01;99967.09;;;11.16;100.00
35647;BME280;28680;45.642;13.756;2022-12-16T05:41:45;99963.53;;;11.17;100.00
35647;BME280;28680;45.642;13.756;2022-12-16T05:44:30;99961.03;;;11.16;100.00
35647;BME280;28680;45.642;13.756;2022-12-16T05:47:14;99962.00;;;11.15;100.00
35647;BME280;28680;45.642;13.756;2022-12-16T05:49:59;99976.09;;;11.14;100.00
35647;BME280;28680;45.642;13.756;2022-12-16T05:52:54;99966.41;;;11.14;100.00
35647;BME280;28680;45.642;13.756;2022-12-16T05:55:39;99970.84;;;11.14;100.00
35647;BME280;28680;45.642;13.756;2022-12-16T05:58:25;99963.09;;;11.12;100.00
35647;BME280;28680;45.642;13.756;2022-12-16T06:01:10;99965.88;;;11.10;100.00
35647;BME280;28680;45.642;13.756;2022-12-16T06:03:54;99961.44;;;11.11;100.00
35647;BME280;28680;45.642;13.756;2022-12-16T06:06:40;99978.47;;;11.07;100.00
35647;BME280;28680;45.642;13.756;2022-12-16T06:09:24;99972.25;;;11.08;100.00
35647;BME280;28680;45.642;13.756;2022-12-16T06:12:09;99969.47;;;11.09;100.00
35647;BME280;28680;45.642;13.756;2022-12-16T06:14:54;99972.09;;;11.09;100.00
35647;BME280;28680;45.642;13.756;2022-12-16T06:17:46;99982.22;;;11.04;100.00
35647;BME280;28680;45.642;13.756;2022-12-16T06:20:31;99980.66;;;11.02;100.00
35647;BME280;28680;45.642;13.756;2022-12-16T06:23:16;99986.47;;;11.05;100.00
35647;BME280;28680;45.642;13.756;2022-12-16T06:26:00;99992.97;;;11.01;100.00
35647;BME280;28680;45.642;13.756;2022-12-16T06:28:45;100001.69;;;11.02;100.00
35647;BME280;28680;45.642;13.756;2022-12-16T06:31:29;100004.47;;;11.00;100.00
35647;BME280;28680;45.642;13.756;2022-12-16T06:34:14;100007.47;;;11.05;100.00
35647;BME280;28680;45.642;13.756;2022-12-16T06:36:58;100017.31;;;11.03;100.00
35647;BME280;28680;45.642;13.756;2022-12-16T06:39:43;100013.03;;;11.02;100.00
35647;BME280;28680;45.642;13.756;2022-12-16T06:42:28;100016.88;;;10.98;100.00
35647;BME280;28680;45.642;13.756;2022-12-16T06:45:12;100010.53;;;11.01;100.00
35647;BME280;28680;45.642;13.756;2022-12-16T06:47:56;100016.47;;;11.03;100.00
35647;BME280;28680;45.642;13.756;2022-12-16T06:50:41;100009.28;;;11.05;100.00
35647;BME280;28680;45.642;13.756;2022-12-16T06:53:26;100024.50;;;11.01;100.00
35647;BME280;28680;45.642;13.756;2022-12-16T06:56:10;100028.78;;;11.02;100.00
35647;BME280;28680;45.642;13.756;2022-12-16T06:58:55;100029.75;;;11.01;100.00
35647;BME280;28680;45.642;13.756;2022-12-16T07:01:39;100046.31;;;11.02;100.00
35647;BME280;28680;45.642;13.756;2022-12-16T07:04:24;100045.63;;;11.00;100.00
35647;BME280;28680;45.642;13.756;2022-12-16T07:07:08;100056.00;;;11.01;100.00
35647;BME280;28680;45.642;13.756;2022-12-16T07:09:53;100055.19;;;11.01;100.00
35647;BME280;28680;45.642;13.756;2022-12-16T07:12:38;100060.97;;;11.04;100.00
35647;BME280;28680;45.642;13.756;2022-12-16T07:15:24;100067.06;;;11.05;100.00
35647;BME280;28680;45.642;13.756;2022-12-16T07:18:08;100069.81;;;11.03;100.00
35647;BME280;28680;45.642;13.756;2022-12-16T07:20:53;100066.94;;;11.06;100.00
35647;BME280;28680;45.642;13.756;2022-12-16T07:23:37;100074.81;;;11.06;100.00
35647;BME280;28680;45.642;13.756;2022-12-16T07:26:22;100072.03;;;11.08;100.00
35647;BME280;28680;45.642;13.756;2022-12-16T07:29:06;100071.88;;;11.09;100.00
35647;BME280;28680;45.642;13.756;2022-12-16T07:31:51;100075.50;;;11.08;100.00
35647;BME280;28680;45.642;13.756;2022-12-16T07:34:35;100077.97;;;11.10;100.00
35647;BME280;28680;45.642;13.756;2022-12-16T07:37:20;100085.00;;;11.09;100.00
35647;BME280;28680;45.642;13.756;2022-12-16T07:40:05;100086.25;;;11.05;100.00
35647;BME280;28680;45.642;13.756;2022-12-16T07:42:49;100086.00;;;11.08;100.00
35647;BME280;28680;45.642;13.756;2022-12-16T07:45:34;100090.56;;;11.06;100.00
35647;BME280;28680;45.642;13.756;2022-12-16T07:48:18;100094.00;;;11.07;100.00
35647;BME280;28680;45.642;13.756;2022-12-16T07:51:03;100105.75;;;11.03;100.00
35647;BME280;28680;45.642;13.756;2022-12-16T07:53:48;100102.31;;;11.02;100.00
35647;BME280;28680;45.642;13.756;2022-12-16T07:56:32;100109.91;;;11.05;100.00
35647;BME280;28680;45.642;13.756;2022-12-16T07:59:17;100115.44;;;11.02;100.00
35647;BME280;28680;45.642;13.756;2022-12-16T08:02:01;100120.81;;;11.01;100.00
35647;BME280;28680;45.642;13.756;2022-12-16T08:04:46;100126.47;;;10.96;100.00
35647;BME280;28680;45.642;13.756;2022-12-16T08:07:31;100136.41;;;10.92;100.00
35647;BME280;28680;45.642;13.756;2022-12-16T08:10:15;100143.09;;;10.97;100.00
35647;BME280;28680;45.642;13.756;2022-12-16T08:13:02;100146.91;;;10.92;100.00
35647;BME280;28680;45.642;13.756;2022-12-16T08:15:48;100156.34;;;10.85;100.00
35647;BME280;28680;45.642;13.756;2022-12-16T08:18:33;100151.47;;;10.90;100.00
35647;BME280;28680;45.642;13.756;2022-12-16T08:21:17;100161.03;;;10.91;100.00
35647;BME280;28680;45.642;13.756;2022-12-16T08:24:02;100171.53;;;10.91;100.00
35647;BME280;28680;45.642;13.756;2022-12-16T08:26:47;100175.81;;;10.92;100.00
35647;BME280;28680;45.642;13.756;2022-12-16T08:29:31;100163.53;;;10.93;100.00
35647;BME280;28680;45.642;13.756;2022-12-16T08:32:16;100170.28;;;10.96;100.00
35647;BME280;28680;45.642;13.756;2022-12-16T08:35:01;100177.34;;;10.95;100.00
35647;BME280;28680;45.642;13.756;2022-12-16T08:37:46;100190.72;;;10.92;100.00
35647;BME280;28680;45.642;13.756;2022-12-16T08:40:31;100185.09;;;10.97;100.00
35647;BME280;28680;45.642;13.756;2022-12-16T08:43:15;100199.03;;;10.97;100.00
35647;BME280;28680;45.642;13.756;2022-12-16T08:46:00;100202.78;;;10.95;100.00
35647;BME280;28680;45.642;13.756;2022-12-16T08:48:44;100207.75;;;10.98;100.00
35647;BME280;28680;45.642;13.756;2022-12-16T08:51:29;100212.03;;;10.99;100.00
35647;BME280;28680;45.642;13.756;2022-12-16T08:54:14;100210.81;;;11.03;100.00
35647;BME280;28680;45.642;13.756;2022-12-16T08:56:58;100222.13;;;11.03;100.00
35647;BME280;28680;45.642;13.756;2022-12-16T08:59:43;100221.44;;;11.01;100.00
35647;BME280;28680;45.642;13.756;2022-12-16T09:02:27;100227.78;;;10.99;100.00
35647;BME280;28680;45.642;13.756;2022-12-16T09:05:12;100232.91;;;11.00;100.00
35647;BME280;28680;45.642;13.756;2022-12-16T09:08:02;100235.25;;;11.03;100.00
35647;BME280;28680;45.642;13.756;2022-12-16T09:10:47;100228.63;;;11.09;100.00
35647;BME280;28680;45.642;13.756;2022-12-16T09:13:32;100230.31;;;11.10;100.00
35647;BME280;28680;45.642;13.756;2022-12-16T09:16:17;100219.13;;;11.18;100.00
35647;BME280;28680;45.642;13.756;2022-12-16T09:19:01;100219.50;;;11.13;100.00
35647;BME280;28680;45.642;13.756;2022-12-16T09:21:46;100220.06;;;11.17;100.00
35647;BME280;28680;45.642;13.756;2022-12-16T09:24:30;100218.00;;;11.20;100.00
35647;BME280;28680;45.642;13.756;2022-12-16T09:27:15;100214.44;;;11.21;100.00
35647;BME280;28680;45.642;13.756;2022-12-16T09:29:59;100218.56;;;11.24;100.00
35647;BME280;28680;45.642;13.756;2022-12-16T09:32:44;100224.25;;;11.29;100.00
35647;BME280;28680;45.642;13.756;2022-12-16T09:35:30;100219.13;;;11.27;100.00
35647;BME280;28680;45.642;13.756;2022-12-16T09:38:15;100221.50;;;11.30;100.00
35647;BME280;28680;45.642;13.756;2022-12-16T09:44:33;100220.25;;;11.25;100.00
35647;BME280;28680;45.642;13.756;2022-12-16T09:50:22;100212.34;;;11.54;100.00
35647;BME280;28680;45.642;13.756;2022-12-16T09:53:14;100211.66;;;11.42;100.00
35647;BME280;28680;45.642;13.756;2022-12-16T09:56:03;100209.84;;;11.72;100.00
35647;BME280;28680;45.642;13.756;2022-12-16T09:58:57;100211.22;;;11.47;100.00
35647;BME280;28680;45.642;13.756;2022-12-16T10:01:42;100198.09;;;11.37;100.00
35647;BME280;28680;45.642;13.756;2022-12-16T10:04:29;100186.91;;;11.35;100.00
35647;BME280;28680;45.642;13.756;2022-12-16T10:07:21;100188.41;;;11.28;100.00
35647;BME280;28680;45.642;13.756;2022-12-16T10:23:21;100182.91;;;11.31;100.00
35647;BME280;28680;45.642;13.756;2022-12-16T10:26:42;100181.34;;;11.28;100.00
35647;BME280;28680;45.642;13.756;2022-12-16T10:29:41;100181.78;;;11.34;100.00
35647;BME280;28680;45.642;13.756;2022-12-16T10:32:49;100184.97;;;11.37;100.00
35647;BME280;28680;45.642;13.756;2022-12-16T10:35:45;100187.59;;;11.37;100.00
35647;BME280;28680;45.642;13.756;2022-12-16T10:41:36;100193.53;;;11.39;100.00
35647;BME280;28680;45.642;13.756;2022-12-16T10:47:43;100200.47;;;11.40;100.00
35647;BME280;28680;45.642;13.756;2022-12-16T10:50:28;100199.47;;;11.41;100.00
35647;BME280;28680;45.642;13.756;2022-12-16T10:53:20;100202.09;;;11.41;100.00
35647;BME280;28680;45.642;13.756;2022-12-16T10:56:53;100207.38;;;11.41;100.00
35647;BME280;28680;45.642;13.756;2022-12-16T10:59:41;100205.59;;;11.42;100.00
35647;BME280;28680;45.642;13.756;2022-12-16T11:02:45;100209.16;;;11.41;100.00
35647;BME280;28680;45.642;13.756;2022-12-16T11:05:34;100206.13;;;11.36;100.00
35647;BME280;28680;45.642;13.756;2022-12-16T11:08:30;100219.56;;;11.32;100.00
35647;BME280;28680;45.642;13.756;2022-12-16T11:14:27;100206.94;;;11.26;100.00
35647;BME280;28680;45.642;13.756;2022-12-16T11:17:24;100208.63;;;11.27;100.00
35647;BME280;28680;45.642;13.756;2022-12-16T11:20:23;100214.44;;;11.31;100.00
35647;BME280;28680;45.642;13.756;2022-12-16T11:23:22;100210.13;;;11.30;100.00
35647;BME280;28680;45.642;13.756;2022-12-16T11:26:17;100211.66;;;11.32;100.00
35647;BME280;28680;45.642;13.756;2022-12-16T11:29:10;100216.38;;;11.39;100.00
35647;BME280;28680;45.642;13.756;2022-12-16T11:35:14;100215.66;;;11.46;100.00
35647;BME280;28680;45.642;13.756;2022-12-16T11:38:01;100209.72;;;11.44;100.00
35647;BME280;28680;45.642;13.756;2022-12-16T11:40:53;100209.47;;;11.47;100.00
35647;BME280;28680;45.642;13.756;2022-12-16T11:43:50;100217.75;;;11.43;100.00
35647;BME280;28680;45.642;13.756;2022-12-16T11:46:35;100214.44;;;11.41;100.00
35647;BME280;28680;45.642;13.756;2022-12-16T11:49:26;100217.19;;;11.39;100.00
35647;BME280;28680;45.642;13.756;2022-12-16T11:52:18;100218.00;;;11.40;100.00
35647;BME280;28680;45.642;13.756;2022-12-16T11:55:22;100211.78;;;11.41;100.00
35647;BME280;28680;45.642;13.756;2022-12-16T11:58:36;100216.22;;;11.40;100.00
35647;BME280;28680;45.642;13.756;2022-12-16T12:01:27;100212.47;;;11.43;100.00
35647;BME280;28680;45.642;13.756;2022-12-16T12:04:14;100211.53;;;11.44;100.00
35647;BME280;28680;45.642;13.756;2022-12-16T12:14:01;100222.47;;;11.59;100.00
35647;BME280;28680;45.642;13.756;2022-12-16T12:22:42;100218.84;;;11.50;100.00
35647;BME280;28680;45.642;13.756;2022-12-16T12:25:47;100222.56;;;11.38;100.00
35647;BME280;28680;45.642;13.756;2022-12-16T12:28:49;100233.25;;;11.36;100.00
35647;BME280;28680;45.642;13.756;2022-12-16T12:32:04;100224.94;;;11.31;100.00
35647;BME280;28680;45.642;13.756;2022-12-16T12:38:18;100221.88;;;11.26;100.00
35647;BME280;28680;45.642;13.756;2022-12-16T12:41:17;100232.13;;;11.29;100.00
35647;BME280;28680;45.642;13.756;2022-12-16T12:44:42;100228.94;;;11.25;100.00
35647;BME280;28680;45.642;13.756;2022-12-16T12:47:32;100220.94;;;11.27;100.00
35647;BME280;28680;45.642;13.756;2022-12-16T12:50:36;100225.63;;;11.33;100.00
35647;BME280;28680;45.642;13.756;2022-12-16T12:53:39;100234.88;;;11.37;100.00
35647;BME280;28680;45.642;13.756;2022-12-16T12:56:48;100229.63;;;11.37;100.00
35647;BME280;28680;45.642;13.756;2022-12-16T13:05:58;100234.06;;;11.27;100.00
35647;BME280;28680;45.642;13.756;2022-12-16T13:11:36;100232.25;;;11.27;100.00
35647;BME280;28680;45.642;13.756;2022-12-16T13:17:19;100240.41;;;11.24;100.00
35647;BME280;28680;45.642;13.756;2022-12-16T13:23:37;100240.81;;;11.29;100.00
35647;BME280;28680;45.642;13.756;2022-12-16T13:26:25;100247.47;;;11.24;100.00
35647;BME280;28680;45.642;13.756;2022-12-16T13:38:17;100254.63;;;11.12;100.00
35647;BME280;28680;45.642;13.756;2022-12-16T13:41:08;100255.88;;;11.08;100.00
35647;BME280;28680;45.642;13.756;2022-12-16T13:44:12;100254.34;;;11.15;100.00
35647;BME280;28680;45.642;13.756;2022-12-16T13:46:56;100259.09;;;11.21;100.00
35647;BME280;28680;45.642;13.756;2022-12-16T13:49:46;100263.91;;;11.36;100.00
35647;BME280;28680;45.642;13.756;2022-12-16T13:53:04;100266.16;;;11.30;100.00
35647;BME280;28680;45.642;13.756;2022-12-16T13:56:19;100264.47;;;11.29;100.00
35647;BME280;28680;45.642;13.756;2022-12-16T13:59:21;100265.31;;;11.69;100.00
35647;BME280;28680;45.642;13.756;2022-12-16T14:02:30;100259.34;;;11.38;100.00
35647;BME280;28680;45.642;13.756;2022-12-16T14:05:36;100253.69;;;11.32;100.00
35647;BME280;28680;45.642;13.756;2022-12-16T14:08:31;100258.94;;;11.23;100.00
35647;BME280;28680;45.642;13.756;2022-12-16T14:11:48;100263.22;;;11.24;100.00
35647;BME280;28680;45.642;13.756;2022-12-16T14:15:06;100258.38;;;11.19;100.00
35647;BME280;28680;45.642;13.756;2022-12-16T14:18:14;100264.03;;;11.15;100.00
35647;BME280;28680;45.642;13.756;2022-12-16T14:21:49;100263.91;;;11.16;100.00
35647;BME280;28680;45.642;13.756;2022-12-16T14:24:37;100265.56;;;11.17;100.00
35647;BME280;28680;45.642;13.756;2022-12-16T14:27:22;100271.91;;;11.15;100.00
35647;BME280;28680;45.642;13.756;2022-12-16T14:30:25;100282.53;;;11.13;100.00
35647;BME280;28680;45.642;13.756;2022-12-16T14:33:26;100286.84;;;11.14;100.00
35647;BME280;28680;45.642;13.756;2022-12-16T14:36:27;100283.53;;;11.12;100.00
35647;BME280;28680;45.642;13.756;2022-12-16T14:39:26;100288.09;;;11.10;100.00
35647;BME280;28680;45.642;13.756;2022-12-16T14:42:26;100288.34;;;11.07;100.00
35647;BME280;28680;45.642;13.756;2022-12-16T14:45:34;100286.41;;;11.09;100.00
35647;BME280;28680;45.642;13.756;2022-12-16T14:48:37;100287.53;;;11.06;100.00
35647;BME280;28680;45.642;13.756;2022-12-16T14:51:28;100298.97;;;11.05;100.00
35647;BME280;28680;45.642;13.756;2022-12-16T14:57:19;100297.22;;;11.06;100.00
35647;BME280;28680;45.642;13.756;2022-12-16T15:06:49;100312.78;;;10.98;100.00
35647;BME280;28680;45.642;13.756;2022-12-16T15:09:43;100313.56;;;10.88;100.00
35647;BME280;28680;45.642;13.756;2022-12-16T15:12:34;100324.06;;;10.88;100.00
35647;BME280;28680;45.642;13.756;2022-12-16T15:15:33;100326.84;;;10.87;100.00
35647;BME280;28680;45.642;13.756;2022-12-16T15:18:33;100310.13;;;10.88;100.00
35647;BME280;28680;45.642;13.756;2022-12-16T15:21:18;100328.19;;;11.12;100.00
35647;BME280;28680;45.642;13.756;2022-12-16T15:24:17;100322.59;;;11.56;100.00
35647;BME280;28680;45.642;13.756;2022-12-16T15:27:14;100325.69;;;11.20;100.00
35647;BME280;28680;45.642;13.756;2022-12-16T15:30:34;100333.09;;;10.96;100.00
35647;BME280;28680;45.642;13.756;2022-12-16T15:33:22;100334.00;;;10.85;100.00
35647;BME280;28680;45.642;13.756;2022-12-16T15:36:26;100346.72;;;10.80;100.00
35647;BME280;28680;45.642;13.756;2022-12-16T15:42:29;100352.75;;;10.70;100.00
35647;BME280;28680;45.642;13.756;2022-12-16T15:45:29;100357.16;;;10.70;100.00
35647;BME280;28680;45.642;13.756;2022-12-16T15:48:29;100353.00;;;10.67;100.00
35647;BME280;28680;45.642;13.756;2022-12-16T15:51:38;100360.56;;;10.61;100.00
35647;BME280;28680;45.642;13.756;2022-12-16T15:54:25;100363.03;;;10.62;100.00
35647;BME280;28680;45.642;13.756;2022-12-16T15:57:55;100358.66;;;10.63;100.00
35647;BME280;28680;45.642;13.756;2022-12-16T16:00:39;100362.34;;;10.60;100.00
35647;BME280;28680;45.642;13.756;2022-12-16T16:03:27;100364.25;;;10.58;100.00
35647;BME280;28680;45.642;13.756;2022-12-16T16:06:23;100363.31;;;10.59;100.00
35647;BME280;28680;45.642;13.756;2022-12-16T16:09:25;100368.13;;;10.54;100.00